createdAt,value
2023-04-16T00:01:35.872Z,14.20
2023-04-16T00:04:04.677Z,12.60
2023-04-16T00:06:34.760Z,10.13
2023-04-16T00:09:03.412Z,11.45
2023-04-16T00:11:32.783Z,11.05
2023-04-16T00:14:01.811Z,11.02
2023-04-16T00:16:30.559Z,11.07
2023-04-16T00:18:59.266Z,13.48
2023-04-16T00:21:28.136Z,13.60
2023-04-16T00:23:58.138Z,9.10
2023-04-16T00:26:26.775Z,11.27
2023-04-16T00:28:55.422Z,14.38
2023-04-16T00:31:29.081Z,12.77
2023-04-16T00:33:57.968Z,11.65
2023-04-16T00:36:27.125Z,12.43
2023-04-16T00:38:56.324Z,16.88
2023-04-16T00:41:26.288Z,8.05
2023-04-16T00:43:55.034Z,11.80
2023-04-16T00:46:25.067Z,11.40
2023-04-16T00:48:54.928Z,10.68
2023-04-16T00:53:52.191Z,11.45
2023-04-16T00:56:21.159Z,15.35
2023-04-16T00:58:51.151Z,14.03
2023-04-16T01:01:19.845Z,14.05
2023-04-16T01:03:49.201Z,9.65
2023-04-16T01:06:19.437Z,13.65
2023-04-16T01:08:48.360Z,10.30
2023-04-16T01:11:17.651Z,14.33
2023-04-16T01:13:46.264Z,12.68
2023-04-16T01:16:16.272Z,10.65
2023-04-16T01:18:45.092Z,10.63
2023-04-16T01:21:15.071Z,7.93
2023-04-16T01:23:43.982Z,8.25
2023-04-16T01:26:12.636Z,8.03
2023-04-16T01:28:41.250Z,8.95
2023-04-16T01:31:09.916Z,10.57
2023-04-16T01:33:38.573Z,11.25
2023-04-16T01:36:07.452Z,13.30
2023-04-16T01:38:37.402Z,13.37
2023-04-16T01:41:06.038Z,13.20
2023-04-16T01:43:34.629Z,12.38
2023-04-16T01:46:13.055Z,10.73
2023-04-16T01:48:41.806Z,10.57
2023-04-16T01:51:11.093Z,10.13
2023-04-16T01:53:41.175Z,13.07
2023-04-16T01:56:09.820Z,10.88
2023-04-16T01:58:38.511Z,8.52
2023-04-16T02:01:07.541Z,9.50
2023-04-16T02:03:36.533Z,11.57
2023-04-16T02:06:05.425Z,11.90
2023-04-16T02:08:34.062Z,19.95
2023-04-16T02:11:04.027Z,14.50
2023-04-16T02:13:32.632Z,12.98
2023-04-16T02:16:01.454Z,11.88
2023-04-16T02:18:30.491Z,17.20
2023-04-16T02:21:00.828Z,11.40
2023-04-16T02:23:29.800Z,17.02
2023-04-16T02:25:58.661Z,12.65
2023-04-16T02:28:28.666Z,22.23
2023-04-16T02:30:57.344Z,14.45
2023-04-16T02:33:26.703Z,18.25
2023-04-16T02:35:55.477Z,16.00
2023-04-16T02:38:24.195Z,17.73
2023-04-16T02:40:52.818Z,19.63
2023-04-16T02:43:21.421Z,16.80
2023-04-16T02:45:51.479Z,14.40
2023-04-16T02:48:20.177Z,15.80
2023-04-16T02:50:48.857Z,14.73
2023-04-16T02:53:17.505Z,16.67
2023-04-16T02:55:48.961Z,14.93
2023-04-16T02:58:17.565Z,19.55
2023-04-16T03:00:46.245Z,17.55
2023-04-16T03:03:16.251Z,21.08
2023-04-16T03:05:45.551Z,20.23
2023-04-16T03:08:14.180Z,21.73
2023-04-16T03:10:42.912Z,17.20
2023-04-16T03:13:11.685Z,17.08
2023-04-16T03:15:40.296Z,18.52
2023-04-16T03:18:08.985Z,16.00
2023-04-16T03:20:38.994Z,15.18
2023-04-16T03:23:07.573Z,15.48
2023-04-16T03:25:36.588Z,15.70
2023-04-16T03:28:05.447Z,14.30
2023-04-16T03:30:34.097Z,15.80
2023-04-16T03:33:03.053Z,15.43
2023-04-16T03:35:31.849Z,16.00
2023-04-16T03:38:01.946Z,17.48
2023-04-16T03:40:30.872Z,15.40
2023-04-16T03:42:59.547Z,17.07
2023-04-16T03:45:28.181Z,21.60
2023-04-16T03:47:56.919Z,15.52
2023-04-16T03:50:25.780Z,18.15
2023-04-16T03:52:54.407Z,18.37
2023-04-16T03:55:24.495Z,18.75
2023-04-16T03:57:53.176Z,20.30
2023-04-16T04:00:21.781Z,16.98
2023-04-16T04:02:50.580Z,20.55
2023-04-16T04:05:19.295Z,18.05
2023-04-16T04:07:47.925Z,19.75
2023-04-16T04:10:16.744Z,18.77
2023-04-16T04:12:46.740Z,18.97
2023-04-16T04:15:15.536Z,24.38
2023-04-16T04:17:44.219Z,19.57
2023-04-16T04:20:13.605Z,22.83
2023-04-16T04:22:42.230Z,22.60
2023-04-16T04:25:12.070Z,25.17
2023-04-16T04:27:40.780Z,30.58
2023-04-16T04:30:12.029Z,34.97
2023-04-16T04:32:40.655Z,32.30
2023-04-16T04:35:09.654Z,32.33
2023-04-16T04:37:38.262Z,40.47
2023-04-16T04:40:07.463Z,32.72
2023-04-16T04:42:36.073Z,32.40
2023-04-16T04:45:04.700Z,31.08
2023-04-16T04:47:34.722Z,30.80
2023-04-16T04:50:03.444Z,31.55
2023-04-16T04:52:32.081Z,37.58
2023-04-16T04:55:01.289Z,37.50
2023-04-16T04:57:29.930Z,39.80
2023-04-16T04:59:58.624Z,38.75
2023-04-16T05:02:27.428Z,48.40
2023-04-16T05:04:57.591Z,73.78
2023-04-16T05:07:26.221Z,61.03
2023-04-16T05:09:54.957Z,56.05
2023-04-16T05:12:23.614Z,56.67
2023-04-16T05:14:52.562Z,60.58
2023-04-16T05:17:21.226Z,65.75
2023-04-16T05:19:49.851Z,50.67
2023-04-16T05:22:19.869Z,51.17
2023-04-16T05:24:48.522Z,57.00
2023-04-16T05:27:17.309Z,54.08
2023-04-16T05:29:45.878Z,47.03
2023-04-16T05:32:14.593Z,45.33
2023-04-16T05:34:43.536Z,43.45
2023-04-16T05:37:12.512Z,41.37
2023-04-16T05:39:42.544Z,42.97
2023-04-16T05:42:11.185Z,44.90
2023-04-16T05:44:39.868Z,46.20
2023-04-16T05:47:09.747Z,53.03
2023-04-16T05:49:38.387Z,46.53
2023-04-16T05:52:07.397Z,44.20
2023-04-16T05:54:36.160Z,38.38
2023-04-16T05:57:06.634Z,44.30
2023-04-16T05:59:38.179Z,49.38
2023-04-16T06:02:10.732Z,50.85
2023-04-16T06:04:45.264Z,46.10
2023-04-16T06:07:14.307Z,65.53
2023-04-16T06:09:43.228Z,57.27
2023-04-16T06:12:13.332Z,58.88
2023-04-16T06:14:42.000Z,61.15
2023-04-16T06:17:10.616Z,55.55
2023-04-16T06:19:39.263Z,58.15
2023-04-16T06:22:07.927Z,69.65
2023-04-16T06:24:36.858Z,63.80
2023-04-16T06:27:05.578Z,66.73
2023-04-16T06:29:41.058Z,53.00
2023-04-16T06:32:10.598Z,66.88
2023-04-16T06:34:39.418Z,72.43
2023-04-16T06:37:10.525Z,46.45
2023-04-16T06:39:43.493Z,41.83
2023-04-16T06:42:12.279Z,51.47
2023-04-16T06:44:42.286Z,45.17
2023-04-16T06:47:11.011Z,36.25
2023-04-16T06:49:40.301Z,32.38
2023-04-16T06:52:09.347Z,27.25
2023-04-16T06:54:38.032Z,21.00
2023-04-16T06:57:06.774Z,25.45
2023-04-16T06:59:35.357Z,26.40
2023-04-16T07:02:05.495Z,25.50
2023-04-16T07:04:34.162Z,21.08
2023-04-16T07:07:02.883Z,23.50
2023-04-16T07:09:31.556Z,20.70
2023-04-16T07:12:00.184Z,21.88
2023-04-16T07:14:29.491Z,18.35
2023-04-16T07:16:58.372Z,16.77
2023-04-16T07:19:33.393Z,20.50
2023-04-16T07:22:02.154Z,17.90
2023-04-16T07:24:30.816Z,17.10
2023-04-16T07:26:59.521Z,18.80
2023-04-16T07:29:28.567Z,17.25
2023-04-16T07:31:57.163Z,17.83
2023-04-16T07:34:25.822Z,18.45
2023-04-16T07:36:55.849Z,21.20
2023-04-16T07:39:24.459Z,15.05
2023-04-16T07:41:53.098Z,18.65
2023-04-16T07:44:21.692Z,15.13
2023-04-16T07:46:50.567Z,15.80
2023-04-16T07:49:19.287Z,15.73
2023-04-16T07:51:47.931Z,16.65
2023-04-16T07:54:17.904Z,14.10
2023-04-16T07:56:46.569Z,16.88
2023-04-16T07:59:22.909Z,13.07
2023-04-16T08:01:54.507Z,14.18
2023-04-16T08:04:25.730Z,12.32
2023-04-16T08:06:54.950Z,12.43
2023-04-16T08:09:25.691Z,11.87
2023-04-16T08:11:54.334Z,14.70
2023-04-16T08:14:23.220Z,11.43
2023-04-16T08:16:52.156Z,14.55
2023-04-16T08:19:20.782Z,13.50
2023-04-16T08:21:54.050Z,14.95
2023-04-16T08:24:22.749Z,12.98
2023-04-16T08:26:52.724Z,11.70
2023-04-16T08:29:21.866Z,11.00
2023-04-16T08:31:50.538Z,11.20
2023-04-16T08:34:19.206Z,9.52
2023-04-16T08:36:47.850Z,12.32
2023-04-16T08:39:16.478Z,10.23
2023-04-16T08:41:46.169Z,9.60
2023-04-16T08:44:28.982Z,8.80
2023-04-16T08:46:59.054Z,8.70
2023-04-16T08:49:28.385Z,8.48
2023-04-16T08:51:57.686Z,9.73
2023-04-16T08:54:33.278Z,10.43
2023-04-16T08:57:02.238Z,10.73
2023-04-16T08:59:32.507Z,14.25
2023-04-16T09:02:01.206Z,11.98
2023-04-16T09:04:30.838Z,10.85
2023-04-16T09:07:01.378Z,13.05
2023-04-16T09:09:30.051Z,11.30
2023-04-16T09:11:58.708Z,9.98
2023-04-16T09:14:27.349Z,10.68
2023-04-16T09:17:01.097Z,10.65
2023-04-16T09:19:29.801Z,11.35
2023-04-16T09:21:58.794Z,11.10
2023-04-16T09:24:27.848Z,11.93
2023-04-16T09:26:56.560Z,13.17
2023-04-16T09:29:35.408Z,13.40
2023-04-16T09:32:06.132Z,10.98
2023-04-16T09:34:35.017Z,13.50
2023-04-16T09:37:17.192Z,14.07
2023-04-16T09:39:46.335Z,9.85
2023-04-16T09:42:15.890Z,8.02
2023-04-16T09:44:44.565Z,9.25
2023-04-16T09:47:15.372Z,11.32
2023-04-16T09:49:44.382Z,13.55
2023-04-16T09:52:15.392Z,13.10
2023-04-16T09:54:48.094Z,14.38
2023-04-16T09:57:17.055Z,13.63
2023-04-16T09:59:45.821Z,15.18
2023-04-16T10:02:16.605Z,15.68
2023-04-16T10:04:49.383Z,16.27
2023-04-16T10:07:18.495Z,14.27
2023-04-16T10:09:48.521Z,13.70
2023-04-16T10:12:18.014Z,15.02
2023-04-16T10:14:48.371Z,13.73
2023-04-16T10:17:20.234Z,15.32
2023-04-16T10:19:49.581Z,12.65
2023-04-16T10:22:18.293Z,12.00
2023-04-16T10:24:46.954Z,10.68
2023-04-16T10:27:17.139Z,9.65
2023-04-16T10:29:46.506Z,9.65
2023-04-16T10:32:15.798Z,9.15
2023-04-16T10:34:45.844Z,8.80
2023-04-16T10:37:14.456Z,10.90
2023-04-16T10:39:43.074Z,10.40
2023-04-16T10:42:12.237Z,10.88
2023-04-16T10:44:44.375Z,10.82
2023-04-16T10:47:14.150Z,13.57
2023-04-16T10:49:44.527Z,14.55
2023-04-16T10:52:17.498Z,11.85
2023-04-16T10:58:26.643Z,14.27
2023-04-16T11:00:55.586Z,12.05
2023-04-16T11:03:25.001Z,13.43
2023-04-16T11:05:54.609Z,11.93
2023-04-16T11:08:26.388Z,11.07
2023-04-16T11:10:56.174Z,10.52
2023-04-16T11:13:25.766Z,12.25
2023-04-16T11:15:58.480Z,10.05
2023-04-16T11:18:28.245Z,10.38
2023-04-16T11:20:57.447Z,12.88
2023-04-16T11:23:28.235Z,11.07
2023-04-16T11:25:58.642Z,10.57
2023-04-16T11:28:37.274Z,12.00
2023-04-16T11:31:13.359Z,10.75
2023-04-16T11:33:42.476Z,11.50
2023-04-16T11:36:11.433Z,12.73
2023-04-16T11:41:36.400Z,11.50
2023-04-16T11:44:18.841Z,11.37
2023-04-16T11:46:47.958Z,10.63
2023-04-16T11:49:17.585Z,12.10
2023-04-16T11:51:47.424Z,12.88
2023-04-16T11:56:48.457Z,8.48
2023-04-16T11:59:18.725Z,11.50
2023-04-16T12:01:49.429Z,7.78
2023-04-16T12:04:19.364Z,6.95
2023-04-16T12:07:07.099Z,9.07
2023-04-16T12:09:39.994Z,5.68
2023-04-16T12:12:27.780Z,7.13
2023-04-16T12:14:57.495Z,7.10
2023-04-16T12:17:26.810Z,8.18
2023-04-16T12:19:58.014Z,7.13
2023-04-16T12:28:44.728Z,7.65
2023-04-16T12:31:15.979Z,5.50
2023-04-16T12:33:45.033Z,9.88
2023-04-16T12:36:21.130Z,5.17
2023-04-16T12:38:50.195Z,5.28
2023-04-16T12:41:18.809Z,5.72
2023-04-16T12:43:47.472Z,5.50
2023-04-16T12:46:17.600Z,5.65
2023-04-16T12:48:46.291Z,5.15
2023-04-16T12:51:14.938Z,4.45
2023-04-16T12:53:44.380Z,3.88
2023-04-16T12:56:13.685Z,4.82
2023-04-16T12:58:42.679Z,7.80
2023-04-16T13:01:12.090Z,6.00
2023-04-16T13:03:42.845Z,4.88
2023-04-16T13:06:12.138Z,4.22
2023-04-16T13:08:41.382Z,3.47
2023-04-16T13:11:10.780Z,3.28
2023-04-16T13:13:39.886Z,2.92
2023-04-16T13:16:08.934Z,2.78
2023-04-16T13:18:39.456Z,2.92
2023-04-16T13:21:10.192Z,3.30
2023-04-16T13:23:39.147Z,4.18
2023-04-16T13:26:08.184Z,4.10
2023-04-16T13:28:37.561Z,4.23
2023-04-16T13:31:06.585Z,3.88
2023-04-16T13:33:36.044Z,4.50
2023-04-16T13:36:05.037Z,3.70
2023-04-16T13:41:57.996Z,4.88
2023-04-16T13:44:26.766Z,4.28
2023-04-16T13:46:56.172Z,4.38
2023-04-16T13:49:24.897Z,3.92
2023-04-16T13:51:53.526Z,3.78
2023-04-16T13:54:22.644Z,4.25
2023-04-16T13:56:51.856Z,5.97
2023-04-16T13:59:21.810Z,4.32
2023-04-16T14:01:50.665Z,5.75
2023-04-16T14:04:19.480Z,17.58
2023-04-16T14:06:48.205Z,9.70
2023-04-16T14:09:17.183Z,7.25
2023-04-16T14:11:45.898Z,7.53
2023-04-16T14:14:14.607Z,6.63
2023-04-16T14:16:44.660Z,5.38
2023-04-16T14:19:13.437Z,7.07
2023-04-16T14:21:42.237Z,6.82
2023-04-16T14:24:11.114Z,5.88
2023-04-16T14:26:39.759Z,7.57
2023-04-16T14:29:08.646Z,6.55
2023-04-16T14:31:37.694Z,5.30
2023-04-16T14:34:07.853Z,6.55
2023-04-16T14:36:36.992Z,6.53
2023-04-16T14:39:05.726Z,7.03
2023-04-16T14:41:34.647Z,6.07
2023-04-16T14:44:04.210Z,6.25
2023-04-16T14:46:33.636Z,5.70
2023-04-16T14:49:02.288Z,5.60
2023-04-16T14:51:32.650Z,7.50
2023-04-16T14:54:01.339Z,7.28
2023-04-16T14:56:30.173Z,6.90
2023-04-16T14:58:58.815Z,6.35
2023-04-16T15:01:27.486Z,6.68
2023-04-16T15:03:57.435Z,5.25
2023-04-16T15:06:26.824Z,5.22
2023-04-16T15:08:56.783Z,4.90
2023-04-16T15:13:54.361Z,6.18
2023-04-16T15:16:23.101Z,5.35
2023-04-16T15:18:51.892Z,6.15
2023-04-16T15:21:20.646Z,7.13
2023-04-16T15:23:49.274Z,5.43
2023-04-16T15:26:19.310Z,5.75
2023-04-16T15:28:48.007Z,7.07
2023-04-16T15:31:16.670Z,6.72
2023-04-16T15:33:45.418Z,6.70
2023-04-16T15:36:14.275Z,9.20
2023-04-16T15:38:42.947Z,7.45
2023-04-16T15:41:11.898Z,8.88
2023-04-16T15:43:41.929Z,11.35
2023-04-16T15:46:10.787Z,7.10
2023-04-16T15:48:39.448Z,10.65
2023-04-16T15:51:08.174Z,8.43
2023-04-16T15:53:36.856Z,10.25
2023-04-16T15:56:05.475Z,7.20
2023-04-16T15:58:34.162Z,9.40
2023-04-16T16:01:04.125Z,9.75
2023-04-16T16:03:33.898Z,9.43
2023-04-16T16:11:03.990Z,11.13
2023-04-16T16:13:32.590Z,9.98
2023-04-16T16:16:01.817Z,8.43
2023-04-16T16:18:32.215Z,8.52
2023-04-16T16:21:00.821Z,11.43
2023-04-16T16:23:29.416Z,9.63
2023-04-16T16:25:58.018Z,11.15
2023-04-16T16:28:27.115Z,8.77
2023-04-16T16:30:58.694Z,10.27
2023-04-16T16:33:28.518Z,9.90
2023-04-16T16:38:27.025Z,9.43
2023-04-16T16:40:55.654Z,10.32
2023-04-16T16:43:24.397Z,9.50
2023-04-16T16:45:53.058Z,10.35
2023-04-16T16:48:21.666Z,8.25
2023-04-16T16:50:50.269Z,6.68
2023-04-16T16:53:19.016Z,9.38
2023-04-16T16:55:48.989Z,13.20
2023-04-16T16:58:18.014Z,8.65
2023-04-16T17:00:46.737Z,10.70
2023-04-16T17:03:15.554Z,10.52
2023-04-16T17:05:44.329Z,9.30
2023-04-16T17:08:13.843Z,8.35
2023-04-16T17:10:43.530Z,9.63
2023-04-16T17:13:15.162Z,7.90
2023-04-16T17:15:43.805Z,9.35
2023-04-16T17:18:12.437Z,8.75
2023-04-16T17:20:41.054Z,8.55
2023-04-16T17:23:09.861Z,8.05
2023-04-16T17:25:39.171Z,16.75
2023-04-16T17:28:07.849Z,11.73
2023-04-16T17:30:37.808Z,9.70
2023-04-16T17:33:06.420Z,10.95
2023-04-16T17:35:35.216Z,12.55
2023-04-16T17:38:03.852Z,11.10
2023-04-16T17:40:32.642Z,10.75
2023-04-16T17:43:01.405Z,14.10
2023-04-16T17:45:30.228Z,14.13
2023-04-16T17:48:00.511Z,13.07
2023-04-16T17:50:29.554Z,10.63
2023-04-16T17:53:03.522Z,12.67
2023-04-16T17:55:32.874Z,13.20
2023-04-16T17:58:03.571Z,16.52
2023-04-16T18:00:32.424Z,15.35
2023-04-16T18:03:02.701Z,13.75
2023-04-16T18:05:32.166Z,14.55
2023-04-16T18:08:01.114Z,12.07
2023-04-16T18:10:32.651Z,12.87
2023-04-16T18:13:01.884Z,10.75
2023-04-16T18:15:30.868Z,9.60
2023-04-16T18:17:59.975Z,11.90
2023-04-16T18:20:30.349Z,12.60
2023-04-16T18:22:59.226Z,15.07
2023-04-16T18:25:34.613Z,8.90
2023-04-16T18:28:05.207Z,6.55
2023-04-16T18:30:34.372Z,6.95
2023-04-16T18:35:36.639Z,5.80
2023-04-16T18:38:06.494Z,5.80
2023-04-16T18:43:04.229Z,4.13
2023-04-16T18:45:34.425Z,4.45
2023-04-16T18:48:04.233Z,4.70
2023-04-16T18:50:33.205Z,3.25
2023-04-16T18:53:03.502Z,4.67
2023-04-16T18:55:32.497Z,3.95
2023-04-16T18:58:01.219Z,4.17
2023-04-16T19:00:29.893Z,4.18
2023-04-16T19:02:58.764Z,4.00
2023-04-16T19:05:27.510Z,7.32
2023-04-16T19:07:56.185Z,6.70
2023-04-16T19:10:26.333Z,5.05
2023-04-16T19:12:56.100Z,8.40
2023-04-16T19:15:25.033Z,4.07
2023-04-16T19:17:54.877Z,5.33
2023-04-16T19:22:52.365Z,3.72
2023-04-16T19:25:21.111Z,5.97
2023-04-16T19:27:51.532Z,4.95
2023-04-16T19:30:20.444Z,5.53
2023-04-16T19:32:49.359Z,7.00
2023-04-16T19:35:18.365Z,7.30
2023-04-16T19:37:47.354Z,5.40
2023-04-16T19:40:16.232Z,6.17
2023-04-16T19:42:45.512Z,6.50
2023-04-16T19:45:16.014Z,6.78
2023-04-16T19:47:44.871Z,7.00
2023-04-16T19:50:13.898Z,6.25
2023-04-16T19:52:43.041Z,7.95
2023-04-16T19:55:13.033Z,10.05
2023-04-16T19:57:41.853Z,7.38
2023-04-16T20:00:11.875Z,6.90
2023-04-16T20:02:42.135Z,6.80
2023-04-16T20:05:11.460Z,7.65
2023-04-16T20:07:40.196Z,8.07
2023-04-16T20:10:09.310Z,8.15
2023-04-16T20:12:38.236Z,7.07
2023-04-16T20:15:07.517Z,5.22
2023-04-16T20:17:36.260Z,6.40
2023-04-16T20:20:10.137Z,7.85
2023-04-16T20:22:39.200Z,6.63
2023-04-16T20:25:08.870Z,7.30
2023-04-16T20:27:37.955Z,10.57
2023-04-16T20:30:08.035Z,9.13
2023-04-16T20:32:36.837Z,10.10
2023-04-16T20:35:10.729Z,10.25
2023-04-16T20:37:42.043Z,10.23
2023-04-16T20:40:11.303Z,11.85
2023-04-16T20:42:41.129Z,11.65
2023-04-16T20:45:11.160Z,9.77
2023-04-16T20:47:40.132Z,11.30
2023-04-16T20:50:12.111Z,7.83
2023-04-16T20:52:42.291Z,7.85
2023-04-16T20:55:11.613Z,8.70
2023-04-16T20:57:40.756Z,7.40
2023-04-16T21:00:11.983Z,14.57
2023-04-16T21:02:40.977Z,8.95
2023-04-16T21:05:14.157Z,11.60
2023-04-16T21:07:43.229Z,11.13
2023-04-16T21:10:12.387Z,9.03
2023-04-16T21:12:41.566Z,9.77
2023-04-16T21:15:10.950Z,13.07
2023-04-16T21:17:39.975Z,9.60
2023-04-16T21:20:10.975Z,8.43
2023-04-16T21:22:41.548Z,8.48
2023-04-16T21:25:10.930Z,7.78
2023-04-16T21:27:39.603Z,8.57
2023-04-16T21:30:09.088Z,9.80
2023-04-16T21:32:37.951Z,8.38
2023-04-16T21:35:07.212Z,8.88
2023-04-16T21:37:35.948Z,7.80
2023-04-16T21:40:07.005Z,8.95
2023-04-16T21:42:38.174Z,7.68
2023-04-16T21:45:08.034Z,7.72
2023-04-16T21:50:05.723Z,9.48
2023-04-16T21:52:40.067Z,8.75
2023-04-16T21:55:11.384Z,8.25
2023-04-16T21:57:40.172Z,9.82
2023-04-16T22:00:13.733Z,10.10
2023-04-16T22:02:43.265Z,9.55
2023-04-16T22:05:12.788Z,9.65
2023-04-16T22:07:42.002Z,11.73
2023-04-16T22:10:14.903Z,9.38
2023-04-16T22:12:44.760Z,9.75
2023-04-16T22:15:14.332Z,10.63
2023-04-16T22:17:43.013Z,10.07
2023-04-16T22:20:12.959Z,10.82
2023-04-16T22:22:41.934Z,12.70
2023-04-16T22:25:12.530Z,11.32
2023-04-16T22:27:41.286Z,9.43
2023-04-16T22:30:10.845Z,9.20
2023-04-16T22:32:39.583Z,8.93
2023-04-16T22:35:08.814Z,10.30
2023-04-16T22:37:37.812Z,11.40
2023-04-16T22:40:08.901Z,9.67
2023-04-16T22:42:39.131Z,8.18
2023-04-16T22:45:08.352Z,9.98
2023-04-16T22:47:37.195Z,8.27
2023-04-16T22:50:06.444Z,12.00
2023-04-16T22:52:35.439Z,13.88
2023-04-16T22:55:04.258Z,11.23
2023-04-16T22:57:33.063Z,9.90
2023-04-16T23:00:05.476Z,9.68
2023-04-16T23:02:34.438Z,9.25
2023-04-16T23:05:03.644Z,10.00
2023-04-16T23:07:32.462Z,10.10
2023-04-16T23:10:01.529Z,10.13
2023-04-16T23:12:30.426Z,10.47
2023-04-16T23:15:00.482Z,10.68
2023-04-16T23:17:31.280Z,13.95
2023-04-16T23:20:00.537Z,13.23
2023-04-16T23:22:29.303Z,13.80
2023-04-16T23:24:58.087Z,14.63
2023-04-16T23:27:26.973Z,14.25
2023-04-16T23:29:55.777Z,16.42
2023-04-16T23:32:24.753Z,14.10
2023-04-16T23:34:55.167Z,13.27
2023-04-16T23:37:23.892Z,13.55
2023-04-16T23:39:52.734Z,14.77
2023-04-16T23:42:21.730Z,13.93
2023-04-16T23:44:50.582Z,16.00
2023-04-16T23:47:19.252Z,17.85
2023-04-16T23:49:48.155Z,15.80
2023-04-16T23:52:18.303Z,16.63
2023-04-16T23:54:46.920Z,14.05
2023-04-16T23:57:15.672Z,13.65
2023-04-16T23:59:44.523Z,14.98
